Terminal Aerodrome Forecast
Issued by NWS Greer, SC

Home | Current Version | Previous Version | Text Only | Print | Product List | Glossary On
Versions: 1 2 3 4 5 6 7 8 9 10 11 12 13 14 15 16 17 18 19 20 21 22 23 24 25 26 27 28 29 30 31 32 33 34 35 36 37 38 39 40 41 42 43 44 45
000
FTUS42 KGSP 191739
TAFAVL
TAF
KAVL 191739Z 1918/2018 16009KT 4SM SHRA VCTS OVC015CB
      TEMPO 1918/1922 VRB10G20KT 4SM TSRA OVC008CB
     FM200000 17008KT 4SM SHRA BR VCTS BKN008CB
     FM200400 20006KT P6SM SHRA BKN008
     FM200600 00000KT P6SM BKN008
     FM201000 18005KT 1 1/2SM BR BKN060
     FM201300 19006KT P6SM BKN080
     FM201600 19009KT P6SM VCTS BKN060CB=

USA.gov is the U.S. government's official web portal to all federal, state and local government web resources and services.